Portada
METAR-TAF:

METAR-TAF

Aeropuertos :

Aeropuerto de Córdoba

Córdoba, España

latitud: 37-51N, longitud: 004-51W, altitud: 90 m

Observación

El informe se hizo hace 25 minutos, a las 03:00 UTC
Viento 3 kt del noreste, variando entre norte-noreste y este
Temperatura 10°C
Humedad 87%
Presión 1019 hPa
Visibilidad 10 km o más
Cielo cubierto a una altura de 3900 ft
chaparrones de lluvia

METAR: LEBA 240300Z AUTO 05003KT 020V100 9999 -SHRA OVC039 10/08 Q1019

Hora: 04:25 (03:25 UTC)

Pronóstico

El informe se hizo hace 1 hora y 25 minutos, a las 02:00 UTC
Pronóstico válido del 24 a las 03 UTC al 24 a las 12 UTC
Viento 4 kt del este-noreste
Visibilidad 10 km o más
Nubes dispersas a una altura de 3000 ft
Probabilidad 40% :
Temporalmente
del 24 a las 03 UTC al 24 a las 12 UTC
Visibilidad: 4000 m
Cielo nuboso a una altura de 1000 ft
lluvia, neblina

TAF: LEBA 240200Z 2403/2412 07004KT 9999 SCT030 PROB40 TEMPO 2403/2412 4000 RA BR BKN010

Observaciones y pronósticos meteorológicos de más de 4000 aeropuertos (mensajes METAR y TAF).

Los puntos amarillos y rojos representan las estaciones disponibles.

Ponga el ratón en el punto deseado para ver el nombre de la estación.

Haga clic para ver las observaciones y los pronósticos meteorológicos.

Para cambiar el mapa : haga clic en los botones verdes con una cruz de color negro para hacer un zoom, en el botón verde con un guión para alejar o en las flechas verdes para mapas adyacentes.


METAR-TAF: